createdAt,value
2018-07-20T00:01:42.083Z,21.37
2018-07-20T00:04:12.433Z,21.40
2018-07-20T00:06:43.116Z,21.38
2018-07-20T00:09:13.496Z,21.35
2018-07-20T00:11:44.095Z,21.42
2018-07-20T00:14:15.042Z,21.30
2018-07-20T00:16:45.505Z,21.26
2018-07-20T00:19:15.837Z,21.32
2018-07-20T00:21:46.298Z,21.24
2018-07-20T00:24:16.958Z,21.27
2018-07-20T00:26:47.412Z,21.40
2018-07-20T00:29:17.768Z,21.37
2018-07-20T00:31:48.234Z,21.34
2018-07-20T00:34:18.461Z,21.32
2018-07-20T00:36:49.069Z,21.25
2018-07-20T00:39:19.343Z,21.25
2018-07-20T00:41:49.645Z,21.32
2018-07-20T00:44:20.168Z,21.32
2018-07-20T00:46:50.956Z,21.32
2018-07-20T00:49:21.358Z,21.26
2018-07-20T00:51:51.670Z,21.30
2018-07-20T00:54:22.060Z,21.22
2018-07-20T00:56:52.523Z,21.18
2018-07-20T00:59:22.963Z,21.11
2018-07-20T01:01:53.481Z,21.12
2018-07-20T01:04:23.864Z,21.04
2018-07-20T01:06:54.362Z,20.92
2018-07-20T01:09:24.694Z,20.78
2018-07-20T01:11:55.029Z,20.72
2018-07-20T01:14:25.404Z,20.80
2018-07-20T01:16:55.854Z,20.69
2018-07-20T01:19:27.337Z,20.78
2018-07-20T01:21:57.843Z,20.88
2018-07-20T01:24:28.129Z,20.76
2018-07-20T01:26:58.832Z,20.76
2018-07-20T01:29:29.489Z,20.75
2018-07-20T01:31:59.841Z,20.75
2018-07-20T01:34:30.401Z,20.63
2018-07-20T01:37:00.759Z,20.70
2018-07-20T01:39:32.284Z,20.73
2018-07-20T01:42:02.632Z,20.67
2018-07-20T01:44:32.997Z,20.70
2018-07-20T01:47:03.470Z,20.65
2018-07-20T01:49:33.810Z,20.62
2018-07-20T01:52:04.139Z,20.68
2018-07-20T01:54:34.598Z,20.63
2018-07-20T01:57:05.091Z,20.49
2018-07-20T01:59:35.659Z,20.54
2018-07-20T02:02:07.077Z,20.59
2018-07-20T02:04:37.643Z,20.67
2018-07-20T02:07:07.967Z,20.63
2018-07-20T02:09:38.515Z,20.65
2018-07-20T02:12:09.128Z,20.70
2018-07-20T02:14:39.638Z,20.68
2018-07-20T02:17:09.976Z,20.82
2018-07-20T02:19:40.260Z,20.76
2018-07-20T02:22:10.957Z,20.78
2018-07-20T02:24:41.573Z,20.78
2018-07-20T02:27:12.289Z,20.81
2018-07-20T02:29:42.980Z,20.85
2018-07-20T02:32:13.727Z,20.88
2018-07-20T02:34:44.464Z,20.82
2018-07-20T02:37:14.843Z,20.81
2018-07-20T02:39:45.294Z,20.83
2018-07-20T02:42:15.661Z,20.81
2018-07-20T02:44:46.318Z,20.82
2018-07-20T02:47:16.938Z,20.78
2018-07-20T02:49:47.366Z,20.82
2018-07-20T02:52:17.805Z,20.82
2018-07-20T02:54:50.265Z,20.82
2018-07-20T02:57:20.682Z,20.88
2018-07-20T02:59:51.204Z,20.89
2018-07-20T03:02:21.621Z,20.84
2018-07-20T03:04:52.119Z,20.90
2018-07-20T03:07:22.742Z,20.95
2018-07-20T03:09:53.206Z,20.90
2018-07-20T03:12:24.369Z,20.94
2018-07-20T03:14:55.234Z,20.92
2018-07-20T03:17:25.678Z,20.83
2018-07-20T03:19:56.060Z,20.86
2018-07-20T03:22:26.455Z,20.88
2018-07-20T03:24:57.125Z,20.95
2018-07-20T03:27:27.591Z,20.98
2018-07-20T03:29:58.275Z,20.96
2018-07-20T03:32:28.735Z,20.94
2018-07-20T03:34:59.358Z,20.96
2018-07-20T03:37:29.914Z,20.89
2018-07-20T03:40:00.408Z,20.93
2018-07-20T03:42:30.919Z,21.02
2018-07-20T03:45:01.472Z,21.10
2018-07-20T03:47:31.962Z,21.01
2018-07-20T03:50:02.392Z,21.10
2018-07-20T03:52:32.640Z,21.18
2018-07-20T03:55:03.253Z,21.23
2018-07-20T03:57:33.782Z,21.16
2018-07-20T04:00:04.374Z,21.02
2018-07-20T04:02:35.241Z,20.97
2018-07-20T04:05:06.029Z,21.21
2018-07-20T04:07:36.511Z,21.20
2018-07-20T04:10:07.319Z,21.12
2018-07-20T04:12:37.996Z,21.09
2018-07-20T04:15:08.402Z,21.21
2018-07-20T04:17:43.399Z,21.16
2018-07-20T04:20:15.201Z,21.10
2018-07-20T04:23:48.790Z,21.13
2018-07-20T04:26:19.630Z,21.34
2018-07-20T04:28:50.315Z,21.30
2018-07-20T04:31:21.129Z,21.39
2018-07-20T04:33:51.756Z,21.40
2018-07-20T04:36:22.392Z,21.42
2018-07-20T04:38:53.569Z,21.44
2018-07-20T04:41:23.973Z,21.48
2018-07-20T04:43:54.759Z,21.57
2018-07-20T04:46:25.552Z,21.57
2018-07-20T04:48:55.915Z,21.58
2018-07-20T04:51:26.310Z,21.60
2018-07-20T04:53:56.910Z,21.55
2018-07-20T04:56:27.823Z,21.55
2018-07-20T04:58:58.412Z,21.69
2018-07-20T05:01:29.585Z,21.63
2018-07-20T05:03:59.877Z,21.80
2018-07-20T05:06:30.427Z,21.71
2018-07-20T05:09:00.934Z,21.54
2018-07-20T05:11:31.678Z,21.66
2018-07-20T05:14:02.182Z,21.64
2018-07-20T05:16:32.612Z,21.75
2018-07-20T05:19:03.677Z,21.70
2018-07-20T05:21:34.532Z,21.85
2018-07-20T05:24:05.071Z,21.92
2018-07-20T05:26:35.690Z,22.01
2018-07-20T05:29:06.071Z,22.08
2018-07-20T05:31:36.642Z,22.17
2018-07-20T05:34:07.032Z,22.24
2018-07-20T05:36:37.394Z,22.32
2018-07-20T05:39:09.609Z,22.43
2018-07-20T05:41:40.028Z,22.21
2018-07-20T05:44:10.606Z,22.19
2018-07-20T05:46:41.329Z,22.36
2018-07-20T05:49:11.970Z,22.43
2018-07-20T05:51:42.512Z,22.37
2018-07-20T05:54:12.897Z,22.44
2018-07-20T05:56:44.109Z,22.59
2018-07-20T05:59:14.926Z,22.78
2018-07-20T06:01:45.282Z,22.73
2018-07-20T06:04:15.672Z,22.74
2018-07-20T06:06:46.875Z,22.76
2018-07-20T06:09:18.291Z,22.83
2018-07-20T06:11:49.698Z,22.91
2018-07-20T06:14:20.087Z,23.03
2018-07-20T06:16:50.671Z,23.06
2018-07-20T06:19:21.106Z,23.10
2018-07-20T06:21:51.617Z,23.13
2018-07-20T06:24:22.537Z,23.13
2018-07-20T06:26:53.101Z,23.07
2018-07-20T06:29:23.546Z,23.10
2018-07-20T06:31:54.233Z,23.22
2018-07-20T06:34:24.776Z,23.21
2018-07-20T06:36:55.155Z,23.12
2018-07-20T06:39:25.599Z,23.13
2018-07-20T06:41:56.044Z,23.31
2018-07-20T06:44:26.664Z,23.33
2018-07-20T06:46:57.210Z,23.38
2018-07-20T06:49:27.720Z,23.29
2018-07-20T06:51:58.147Z,23.02
2018-07-20T06:54:28.721Z,22.91
2018-07-20T06:56:59.212Z,23.19
2018-07-20T06:59:29.841Z,23.43
2018-07-20T07:02:00.184Z,23.58
2018-07-20T07:04:30.706Z,23.80
2018-07-20T07:07:02.060Z,23.26
2018-07-20T07:09:32.900Z,23.58
2018-07-20T07:12:03.497Z,23.64
2018-07-20T07:14:33.936Z,23.85
2018-07-20T07:17:04.171Z,24.10
2018-07-20T07:19:35.214Z,24.14
2018-07-20T07:22:05.962Z,24.21
2018-07-20T07:24:37.205Z,24.43
2018-07-20T07:27:07.902Z,24.69
2018-07-20T07:29:38.419Z,24.89
2018-07-20T07:32:09.128Z,25.03
2018-07-20T07:34:39.829Z,24.99
2018-07-20T07:37:10.184Z,25.44
2018-07-20T07:39:40.757Z,25.78
2018-07-20T07:42:11.150Z,26.06
2018-07-20T07:44:41.720Z,26.31
2018-07-20T07:47:12.568Z,26.30
2018-07-20T07:49:43.147Z,26.66
2018-07-20T07:52:13.790Z,26.96
2018-07-20T07:54:44.519Z,27.44
2018-07-20T07:57:15.035Z,27.87
2018-07-20T07:59:45.616Z,27.70
2018-07-20T08:02:16.159Z,28.29
2018-07-20T08:04:46.509Z,28.51
2018-07-20T08:07:16.958Z,29.12
2018-07-20T08:09:47.546Z,29.28
2018-07-20T08:12:18.090Z,29.19
2018-07-20T08:14:48.625Z,29.63
2018-07-20T08:17:19.025Z,30.41
2018-07-20T08:19:49.507Z,31.27
2018-07-20T08:22:20.016Z,31.82
2018-07-20T08:24:50.680Z,31.93
2018-07-20T08:27:21.051Z,32.53
2018-07-20T08:29:51.660Z,32.63
2018-07-20T08:32:22.094Z,32.69
2018-07-20T08:34:52.670Z,33.70
2018-07-20T08:37:23.182Z,34.18
2018-07-20T08:39:53.383Z,35.06
2018-07-20T08:42:24.142Z,35.32
2018-07-20T08:44:54.726Z,36.33
2018-07-20T08:47:25.048Z,36.35
2018-07-20T08:49:55.437Z,36.80
2018-07-20T08:52:25.913Z,36.09
2018-07-20T08:54:56.621Z,34.47
2018-07-20T08:57:27.155Z,33.11
2018-07-20T08:59:57.665Z,32.74
2018-07-20T09:02:27.962Z,34.38
2018-07-20T09:04:58.474Z,36.44
2018-07-20T09:07:28.906Z,36.61
2018-07-20T09:10:00.407Z,37.12
2018-07-20T09:12:31.755Z,37.69
2018-07-20T09:15:02.294Z,37.53
2018-07-20T09:17:32.944Z,37.19
2018-07-20T09:20:03.498Z,36.65
2018-07-20T09:22:34.487Z,37.00
2018-07-20T09:25:05.249Z,37.93
2018-07-20T09:27:35.974Z,39.17
2018-07-20T09:30:07.480Z,38.61
2018-07-20T09:32:37.828Z,39.25
2018-07-20T09:35:08.245Z,37.22
2018-07-20T09:37:38.811Z,37.50
2018-07-20T09:40:09.382Z,35.74
2018-07-20T09:42:40.017Z,34.80
2018-07-20T09:45:10.651Z,36.03
2018-07-20T09:47:41.163Z,35.80
2018-07-20T09:50:11.553Z,35.86
2018-07-20T09:52:41.869Z,35.52
2018-07-20T09:55:12.658Z,35.41
2018-07-20T09:57:43.083Z,35.10
2018-07-20T10:00:17.602Z,34.10
2018-07-20T10:02:48.100Z,33.27
2018-07-20T10:05:18.506Z,33.17
2018-07-20T10:07:49.811Z,33.25
2018-07-20T10:10:20.369Z,33.31
2018-07-20T10:12:51.792Z,34.52
2018-07-20T10:15:22.246Z,35.12
2018-07-20T10:17:52.835Z,35.13
2018-07-20T10:20:23.941Z,34.97
2018-07-20T10:22:54.249Z,34.21
2018-07-20T10:25:24.752Z,33.90
2018-07-20T10:27:55.059Z,33.16
2018-07-20T10:30:25.462Z,32.73
2018-07-20T10:32:56.113Z,32.89
2018-07-20T10:35:27.508Z,32.68
2018-07-20T10:37:58.000Z,32.53
2018-07-20T10:40:28.872Z,32.68
2018-07-20T10:42:59.755Z,32.61
2018-07-20T10:45:30.368Z,32.54
2018-07-20T10:48:00.860Z,32.22
2018-07-20T10:50:31.443Z,31.86
2018-07-20T10:53:01.815Z,32.08
2018-07-20T10:55:32.333Z,31.74
2018-07-20T10:58:02.814Z,31.26
2018-07-20T11:00:33.147Z,30.91
2018-07-20T11:03:03.465Z,30.83
2018-07-20T11:05:33.995Z,30.67
2018-07-20T11:08:04.672Z,30.43
2018-07-20T11:10:35.036Z,30.56
2018-07-20T11:13:05.604Z,30.65
2018-07-20T11:15:37.289Z,30.78
2018-07-20T11:18:08.229Z,30.87
2018-07-20T11:20:38.634Z,30.98
2018-07-20T11:23:09.485Z,31.10
2018-07-20T11:25:39.819Z,31.66
2018-07-20T11:28:10.417Z,31.94
2018-07-20T11:30:40.782Z,32.24
2018-07-20T11:33:11.193Z,32.97
2018-07-20T11:35:41.430Z,32.95
2018-07-20T11:38:11.726Z,33.00
2018-07-20T11:40:42.247Z,32.99
2018-07-20T11:43:13.400Z,32.36
2018-07-20T11:45:43.727Z,32.07
2018-07-20T11:48:14.042Z,31.97
2018-07-20T11:50:44.481Z,32.46
2018-07-20T11:53:14.785Z,32.40
2018-07-20T11:55:45.179Z,32.39
2018-07-20T11:58:15.648Z,32.73
2018-07-20T12:00:46.048Z,32.25
2018-07-20T12:03:16.402Z,31.71
2018-07-20T12:05:46.809Z,31.97
2018-07-20T12:08:17.539Z,31.56
2018-07-20T12:10:48.196Z,31.75
2018-07-20T12:13:18.598Z,31.78
2018-07-20T12:15:49.032Z,32.04
2018-07-20T12:18:19.549Z,32.17
2018-07-20T12:20:49.893Z,32.04
2018-07-20T12:23:20.262Z,31.77
2018-07-20T12:25:51.694Z,31.84
2018-07-20T12:28:22.013Z,32.02
2018-07-20T12:30:53.291Z,31.98
2018-07-20T12:33:23.698Z,31.88
2018-07-20T12:35:54.068Z,31.82
2018-07-20T12:38:24.394Z,31.99
2018-07-20T12:40:54.833Z,31.83
2018-07-20T12:43:25.208Z,31.83
2018-07-20T12:45:55.676Z,31.95
2018-07-20T12:48:26.185Z,32.00
2018-07-20T12:50:56.550Z,32.05
2018-07-20T12:53:27.028Z,32.51
2018-07-20T12:55:57.625Z,32.56
2018-07-20T12:58:28.078Z,32.27
2018-07-20T13:00:58.718Z,32.64
2018-07-20T13:03:29.093Z,32.54
2018-07-20T13:05:59.731Z,32.39
2018-07-20T13:08:30.533Z,32.58
2018-07-20T13:11:00.922Z,32.47
2018-07-20T13:13:31.432Z,32.54
2018-07-20T13:16:01.969Z,32.05
2018-07-20T13:18:32.260Z,31.85
2018-07-20T13:21:02.826Z,32.19
2018-07-20T13:23:33.251Z,32.94
2018-07-20T13:26:03.590Z,33.06
2018-07-20T13:28:34.122Z,32.62
2018-07-20T13:31:04.499Z,32.42
2018-07-20T13:33:34.961Z,32.50
2018-07-20T13:36:05.312Z,32.08
2018-07-20T13:38:35.683Z,31.53
2018-07-20T13:41:06.159Z,31.07
2018-07-20T13:43:36.553Z,30.82
2018-07-20T13:46:07.203Z,30.69
2018-07-20T13:48:37.651Z,30.44
2018-07-20T13:51:08.091Z,30.60
2018-07-20T13:53:38.553Z,30.89
2018-07-20T13:56:08.826Z,31.09
2018-07-20T13:58:39.384Z,31.19
2018-07-20T14:02:33.713Z,30.98
2018-07-20T14:05:04.228Z,31.18
2018-07-20T14:07:34.592Z,31.19
2018-07-20T14:10:05.619Z,31.36
2018-07-20T14:12:36.115Z,31.40
2018-07-20T14:15:07.467Z,31.20
2018-07-20T14:17:37.890Z,30.96
2018-07-20T14:20:08.368Z,30.98
2018-07-20T14:22:38.837Z,30.66
2018-07-20T14:25:09.167Z,30.42
2018-07-20T14:27:39.710Z,30.21
2018-07-20T14:30:09.994Z,30.39
2018-07-20T14:32:41.172Z,30.17
2018-07-20T14:35:11.537Z,29.79
2018-07-20T14:37:42.024Z,30.51
2018-07-20T14:40:12.399Z,30.46
2018-07-20T14:42:42.865Z,30.50
2018-07-20T14:45:13.095Z,30.60
2018-07-20T14:47:43.416Z,30.58
2018-07-20T14:50:13.715Z,30.42
2018-07-20T14:52:44.239Z,30.40
2018-07-20T14:55:14.791Z,30.78
2018-07-20T14:57:45.314Z,30.80
2018-07-20T15:00:15.824Z,30.91
2018-07-20T15:02:46.268Z,31.03
2018-07-20T15:05:16.687Z,30.96
2018-07-20T15:07:47.105Z,30.77
2018-07-20T15:10:17.530Z,30.68
2018-07-20T15:12:48.053Z,30.80
2018-07-20T15:15:18.341Z,30.79
2018-07-20T15:17:48.818Z,30.50
2018-07-20T15:20:19.098Z,30.40
2018-07-20T15:22:49.462Z,30.44
2018-07-20T15:25:19.961Z,30.32
2018-07-20T15:27:50.425Z,30.28
2018-07-20T15:30:20.726Z,30.13
2018-07-20T15:32:51.073Z,30.15
2018-07-20T15:35:21.418Z,30.18
2018-07-20T15:37:52.289Z,30.33
2018-07-20T15:40:22.607Z,30.26
2018-07-20T15:42:56.748Z,30.32
2018-07-20T15:45:27.967Z,30.23
2018-07-20T15:47:58.294Z,30.22
2018-07-20T15:50:28.776Z,30.15
2018-07-20T15:53:36.249Z,30.22
2018-07-20T15:55:29.674Z,30.17
2018-07-20T15:58:00.236Z,30.20
2018-07-20T16:00:30.662Z,30.07
2018-07-20T16:03:01.131Z,29.95
2018-07-20T16:05:32.349Z,30.02
2018-07-20T16:08:02.747Z,29.89
2018-07-20T16:10:34.366Z,29.82
2018-07-20T16:13:04.762Z,29.70
2018-07-20T16:15:35.059Z,29.57
2018-07-20T16:18:05.391Z,29.66
2018-07-20T16:20:35.903Z,29.83
2018-07-20T16:23:06.144Z,29.68
2018-07-20T16:25:36.617Z,29.59
2018-07-20T16:28:07.086Z,29.62
2018-07-20T16:30:37.456Z,29.39
2018-07-20T16:33:08.137Z,29.39
2018-07-20T16:35:38.770Z,29.45
2018-07-20T16:38:09.171Z,29.43
2018-07-20T16:40:39.695Z,29.52
2018-07-20T16:43:10.144Z,29.55
2018-07-20T16:45:40.392Z,29.52
2018-07-20T16:48:10.816Z,29.54
2018-07-20T16:50:41.104Z,29.50
2018-07-20T16:53:11.666Z,29.45
2018-07-20T16:55:41.875Z,29.35
2018-07-20T16:58:12.231Z,29.27
2018-07-20T17:00:42.537Z,29.17
2018-07-20T17:03:13.760Z,29.35
2018-07-20T17:05:44.115Z,29.27
2018-07-20T17:08:15.088Z,29.18
2018-07-20T17:10:45.536Z,29.18
2018-07-20T17:13:15.855Z,29.25
2018-07-20T17:15:46.561Z,29.15
2018-07-20T17:18:16.886Z,29.15
2018-07-20T17:20:47.590Z,29.26
2018-07-20T17:23:17.676Z,29.23
2018-07-20T17:25:47.976Z,29.06
2018-07-20T17:28:18.299Z,28.91
2018-07-20T17:30:48.625Z,28.65
2018-07-20T17:33:18.988Z,28.59
2018-07-20T17:35:49.261Z,28.52
2018-07-20T17:38:19.906Z,28.43
2018-07-20T17:40:50.252Z,28.25
2018-07-20T17:43:20.565Z,28.06
2018-07-20T17:45:51.883Z,27.83
2018-07-20T17:48:22.109Z,27.54
2018-07-20T17:50:52.486Z,27.54
2018-07-20T17:53:22.799Z,27.20
2018-07-20T17:55:53.414Z,27.13
2018-07-20T17:58:23.822Z,27.02
2018-07-20T18:00:54.194Z,26.79
2018-07-20T18:03:24.803Z,26.72
2018-07-20T18:05:55.078Z,26.62
2018-07-20T18:08:25.435Z,26.57
2018-07-20T18:10:55.804Z,26.39
2018-07-20T18:13:26.095Z,26.35
2018-07-20T18:15:56.535Z,26.23
2018-07-20T18:18:27.009Z,26.10
2018-07-20T18:20:57.323Z,26.06
2018-07-20T18:23:28.638Z,25.95
2018-07-20T18:25:58.892Z,25.79
2018-07-20T18:28:29.276Z,25.75
2018-07-20T18:30:59.538Z,25.61
2018-07-20T18:33:30.350Z,25.56
2018-07-20T18:36:00.934Z,25.64
2018-07-20T18:38:31.530Z,25.58
2018-07-20T18:41:02.196Z,25.53
2018-07-20T18:43:32.487Z,25.44
2018-07-20T18:46:03.588Z,25.47
2018-07-20T18:48:33.996Z,25.19
2018-07-20T18:51:04.292Z,25.14
2018-07-20T18:53:34.655Z,24.81
2018-07-20T18:56:05.338Z,24.62
2018-07-20T18:58:35.655Z,24.47
2018-07-20T19:01:06.365Z,24.34
2018-07-20T19:03:36.751Z,24.56
2018-07-20T19:06:22.235Z,24.50
2018-07-20T19:08:53.242Z,24.56
2018-07-20T19:11:23.884Z,24.42
2018-07-20T19:13:54.947Z,24.36
2018-07-20T19:16:25.261Z,24.42
2018-07-20T19:18:56.486Z,24.31
2018-07-20T19:21:26.951Z,24.19
2018-07-20T19:23:57.287Z,24.12
2018-07-20T19:26:27.713Z,24.08
2018-07-20T19:28:57.980Z,24.04
2018-07-20T19:31:28.473Z,24.00
2018-07-20T19:33:58.756Z,23.93
2018-07-20T19:36:29.243Z,23.89
2018-07-20T19:38:59.861Z,23.99
2018-07-20T19:41:32.338Z,23.87
2018-07-20T19:44:02.673Z,23.83
2018-07-20T19:46:33.274Z,23.65
2018-07-20T19:49:04.296Z,23.72
2018-07-20T19:51:35.046Z,23.64
2018-07-20T19:54:05.461Z,23.56
2018-07-20T19:56:35.909Z,23.50
2018-07-20T19:59:07.433Z,23.39
2018-07-20T20:01:38.659Z,23.39
2018-07-20T20:04:09.605Z,23.34
2018-07-20T20:06:40.196Z,23.29
2018-07-20T20:09:11.851Z,23.32
2018-07-20T20:11:42.193Z,23.27
2018-07-20T20:14:13.673Z,23.24
2018-07-20T20:16:44.009Z,23.30
2018-07-20T20:19:14.470Z,23.27
2018-07-20T20:21:45.027Z,23.24
2018-07-20T20:24:15.639Z,23.14
2018-07-20T20:26:46.130Z,23.09
2018-07-20T20:29:16.670Z,23.09
2018-07-20T20:31:47.024Z,23.09
2018-07-20T20:34:18.003Z,23.04
2018-07-20T20:36:48.287Z,22.99
2018-07-20T20:39:18.623Z,22.96
2018-07-20T20:41:48.929Z,22.94
2018-07-20T20:44:19.407Z,22.86
2018-07-20T20:46:49.892Z,22.78
2018-07-20T20:49:20.212Z,22.78
2018-07-20T20:51:51.012Z,22.78
2018-07-20T20:54:21.381Z,22.67
2018-07-20T20:56:51.782Z,22.58
2018-07-20T20:59:22.056Z,22.66
2018-07-20T21:01:52.468Z,22.59
2018-07-20T21:04:22.928Z,22.50
2018-07-20T21:06:54.137Z,22.34
2018-07-20T21:09:24.523Z,22.28
2018-07-20T21:11:59.598Z,22.19
2018-07-20T21:14:29.923Z,22.15
2018-07-20T21:17:01.221Z,22.04
2018-07-20T21:19:31.453Z,22.04
2018-07-20T21:22:01.687Z,22.00
2018-07-20T21:24:32.772Z,22.01
2018-07-20T21:27:03.884Z,21.88
2018-07-20T21:29:34.197Z,21.76
2018-07-20T21:32:04.539Z,21.69
2018-07-20T21:34:35.606Z,21.60
2018-07-20T21:37:06.006Z,21.70
2018-07-20T21:39:37.028Z,21.61
2018-07-20T21:42:07.540Z,21.63
2018-07-20T21:44:37.911Z,21.62
2018-07-20T21:47:08.285Z,21.59
2018-07-20T21:49:39.332Z,21.68
2018-07-20T21:52:10.011Z,21.68
2018-07-20T21:54:40.373Z,21.58
2018-07-20T21:57:11.195Z,21.50
2018-07-20T21:59:41.481Z,21.51
2018-07-20T22:02:12.331Z,21.52
2018-07-20T22:04:42.588Z,21.51
2018-07-20T22:07:13.012Z,21.44
2018-07-20T22:09:43.535Z,21.37
2018-07-20T22:12:13.931Z,21.38
2018-07-20T22:14:44.257Z,21.33
2018-07-20T22:17:14.787Z,20.89
2018-07-20T22:19:45.297Z,21.36
2018-07-20T22:22:15.677Z,21.30
2018-07-20T22:24:46.371Z,21.28
2018-07-20T22:27:16.681Z,21.26
2018-07-20T22:29:47.440Z,21.25
2018-07-20T22:32:17.786Z,21.23
2018-07-20T22:34:48.466Z,21.12
2018-07-20T22:37:18.781Z,21.20
2018-07-20T22:39:49.380Z,21.21
2018-07-20T22:42:20.578Z,21.18
2018-07-20T22:44:50.867Z,21.10
2018-07-20T22:47:21.390Z,21.05
2018-07-20T22:49:51.699Z,21.06
2018-07-20T22:52:22.443Z,21.11
2018-07-20T22:54:53.107Z,21.07
2018-07-20T22:57:23.470Z,20.95
2018-07-20T22:59:54.026Z,20.81
2018-07-20T23:02:24.397Z,20.86
2018-07-20T23:04:54.759Z,20.94
2018-07-20T23:07:25.592Z,20.78
2018-07-20T23:09:57.249Z,20.66
2018-07-20T23:12:27.628Z,20.66
2018-07-20T23:14:58.371Z,20.54
2018-07-20T23:17:28.726Z,20.61
2018-07-20T23:19:59.306Z,20.46
2018-07-20T23:22:29.556Z,20.40
2018-07-20T23:25:00.012Z,20.41
2018-07-20T23:27:30.745Z,20.39
2018-07-20T23:30:01.377Z,20.37
2018-07-20T23:32:31.999Z,20.27
2018-07-20T23:35:02.439Z,20.19
2018-07-20T23:37:32.911Z,20.09
2018-07-20T23:40:03.490Z,20.11
2018-07-20T23:42:33.884Z,20.07
2018-07-20T23:45:04.209Z,19.97
2018-07-20T23:47:34.549Z,19.90
2018-07-20T23:50:05.355Z,19.85
2018-07-20T23:52:36.190Z,19.82
2018-07-20T23:55:07.686Z,19.27
2018-07-20T23:57:38.102Z,19.73
